Time;durP1;ratioP1;P1;durP2;ratioP2;P2;SDS_P1;SDS_P2;PMS_P1;PMS_P2;Temp;Humidity;BMP_temperature;BMP_pressure;BME280_temperature;BME280_humidity;BME280_pressure;Samples;Min_cycle;Max_cycle;Signal;HPM_P1;HPM_P2
2022/04/05 00:02:05;;;;;;;;;19.67;19.67;;;;;9.01;100.00;101044.97;6329302;22;44724;-86
2022/04/05 00:04:32;;;;;;;;;16.25;15.75;;;;;9.00;100.00;101038.81;6300193;22;44807;-88
2022/04/05 00:06:58;;;;;;;;;16.75;16.50;;;;;9.05;100.00;101048.31;6329506;22;45160;-86
2022/04/05 00:09:23;;;;;;;;;20.67;19.00;;;;;8.98;100.00;101051.28;6298227;22;44709;-86
2022/04/05 00:11:49;;;;;;;;;23.00;18.33;;;;;8.97;100.00;101038.97;6299317;22;44603;-87
2022/04/05 00:14:15;;;;;;;;;17.00;15.67;;;;;9.01;100.00;101044.97;6296856;22;44939;-87
2022/04/05 00:16:40;;;;;;;;;14.67;13.00;;;;;9.04;100.00;101046.59;6315854;22;45018;-87
2022/04/05 00:19:07;;;;;;;;;17.33;15.00;;;;;9.07;100.00;101046.41;6291769;22;44785;-86
2022/04/05 00:21:32;;;;;;;;;17.67;16.00;;;;;9.04;100.00;101038.63;6320274;22;45132;-87
2022/04/05 00:23:58;;;;;;;;;18.00;16.00;;;;;8.97;100.00;101048.72;6284864;22;45381;-86
2022/04/05 00:26:23;;;;;;;;;15.67;15.33;;;;;9.00;100.00;101041.47;6312995;22;45203;-87
2022/04/05 00:28:50;;;;;;;;;17.00;15.00;;;;;9.03;100.00;101040.44;6323372;22;45175;-87
2022/04/05 00:31:15;;;;;;;;;22.33;20.00;;;;;9.00;100.00;101040.63;6285528;22;45375;-86
2022/04/05 00:33:41;;;;;;;;;13.33;13.33;;;;;8.94;100.00;101044.44;6283209;22;45241;-89
2022/04/05 00:36:06;;;;;;;;;10.00;10.00;;;;;8.94;100.00;101046.22;6314864;22;45003;-85
2022/04/05 00:38:32;;;;;;;;;19.00;17.00;;;;;8.99;100.00;101049.47;6282274;22;44829;-86
2022/04/05 00:40:59;;;;;;;;;15.33;15.33;;;;;9.01;100.00;101051.13;6307637;22;45296;-87
2022/04/05 00:43:25;;;;;;;;;12.67;11.67;;;;;9.04;100.00;101049.22;6308081;22;45357;-88
2022/04/05 00:45:50;;;;;;;;;15.00;15.00;;;;;9.02;100.00;101044.03;6280456;22;46451;-84
2022/04/05 00:48:42;;;;;;;;;18.33;14.00;;;;;8.92;100.00;101054.28;6280440;22;45376;-86
2022/04/05 00:51:07;;;;;;;;;18.33;16.67;;;;;8.87;100.00;101052.81;6279176;22;45294;-86
2022/04/05 00:53:34;;;;;;;;;17.00;17.00;;;;;8.85;100.00;101049.38;6307935;22;44840;-86
2022/04/05 00:56:03;;;;;;;;;15.67;15.67;;;;;8.89;100.00;101045.63;6280533;22;45326;-85
2022/04/05 00:58:31;;;;;;;;;19.33;17.00;;;;;8.92;100.00;101046.31;6308222;22;44780;-86
2022/04/05 01:00:58;;;;;;;;;15.67;13.67;;;;;8.90;100.00;101042.91;6292597;22;44726;-88
2022/04/05 01:03:25;;;;;;;;;12.67;11.00;;;;;8.89;100.00;101045.63;6316738;22;44840;-87
2022/04/05 01:05:53;;;;;;;;;10.00;10.00;;;;;8.88;100.00;101043.94;6287670;22;45791;-87
2022/04/05 01:08:21;;;;;;;;;17.67;16.00;;;;;8.87;100.00;101048.38;6288256;22;44755;-87
2022/04/05 01:10:47;;;;;;;;;18.67;17.67;;;;;8.84;100.00;101043.22;6316826;22;45394;-88
2022/04/05 01:13:13;;;;;;;;;14.33;11.67;;;;;8.88;100.00;101046.59;6295397;22;44835;-85
2022/04/05 01:15:39;;;;;;;;;15.67;12.00;;;;;8.88;100.00;101043.94;6325862;22;46522;-83
2022/04/05 01:18:05;;;;;;;;;17.00;15.00;;;;;8.93;100.00;101045.38;6292366;22;44653;-86
2022/04/05 01:20:32;;;;;;;;;14.00;12.33;;;;;8.91;100.00;101031.38;6294353;22;44765;-85
2022/04/05 01:22:57;;;;;;;;;17.00;15.67;;;;;8.80;100.00;101033.78;6322655;22;44705;-86
2022/04/05 01:25:23;;;;;;;;;15.50;14.50;;;;;8.86;100.00;101040.53;6291097;22;45251;-85
2022/04/05 01:27:51;;;;;;;;;16.25;16.25;;;;;8.86;100.00;101035.22;6315045;22;45304;-86
2022/04/05 01:30:17;;;;;;;;;15.00;12.50;;;;;8.84;100.00;101027.34;6310998;22;45284;-87
2022/04/05 01:32:43;;;;;;;;;16.00;15.00;;;;;8.85;100.00;101030.84;6280127;22;45294;-87
2022/04/05 01:35:10;;;;;;;;;11.50;10.75;;;;;8.82;100.00;101025.72;6309668;22;45298;-87
2022/04/05 01:37:35;;;;;;;;;15.00;15.00;;;;;8.87;100.00;101021.03;6309219;22;44735;-86
2022/04/05 01:40:01;;;;;;;;;17.50;16.00;;;;;8.83;100.00;101030.94;6314307;22;45155;-87
2022/04/05 01:42:26;;;;;;;;;20.33;16.33;;;;;8.85;100.00;101026.44;6283556;22;45275;-86
2022/04/05 01:44:52;;;;;;;;;14.75;13.75;;;;;8.87;100.00;101021.03;6283109;22;45262;-86
2022/04/05 01:47:18;;;;;;;;;19.00;18.00;;;;;8.90;100.00;101029.69;6283851;22;44694;-86
2022/04/05 01:49:48;;;;;;;;;16.00;16.00;;;;;8.93;100.00;101025.97;6285238;22;45315;-86
2022/04/05 01:52:14;;;;;;;;;18.00;17.00;;;;;8.95;100.00;101011.72;6281739;22;44839;-87
2022/04/05 01:54:40;;;;;;;;;17.00;17.00;;;;;8.95;100.00;101017.03;6307902;22;45412;-86
2022/04/05 01:57:06;;;;;;;;;16.00;16.00;;;;;8.93;100.00;101016.25;6284504;22;44681;-87
2022/04/05 01:59:35;;;;;;;;;19.50;17.25;;;;;8.95;100.00;101013.53;6313837;22;45170;-86
2022/04/05 02:02:05;;;;;;;;;17.00;15.00;;;;;8.93;100.00;101010.09;6287002;22;44828;-86
2022/04/05 02:04:31;;;;;;;;;17.67;17.67;;;;;8.97;100.00;101011.63;6285063;22;46321;-87
2022/04/05 02:06:57;;;;;;;;;15.00;15.00;;;;;9.00;100.00;101012.31;6313352;22;44743;-89
2022/04/05 02:09:22;;;;;;;;;16.00;15.25;;;;;9.02;100.00;101007.78;6315908;22;44646;-87
2022/04/05 02:11:48;;;;;;;;;17.33;17.00;;;;;9.01;100.00;101006.06;6295298;22;44959;-87
2022/04/05 02:14:14;;;;;;;;;13.00;11.00;;;;;8.89;100.00;101019.13;6288652;22;45285;-86
2022/04/05 02:16:40;;;;;;;;;16.00;16.00;;;;;8.89;100.00;101011.19;6284745;22;44820;-85
2022/04/05 02:19:06;;;;;;;;;17.00;15.67;;;;;8.83;100.00;101008.88;6286088;22;44746;-87
2022/04/05 02:21:32;;;;;;;;;20.67;14.67;;;;;8.81;100.00;101013.44;6311954;22;44869;-86
2022/04/05 02:23:57;;;;;;;;;9.00;9.00;;;;;8.81;100.00;101016.94;6312889;22;46136;-87
2022/04/05 02:26:25;;;;;;;;;16.67;16.67;;;;;8.84;100.00;101013.25;6289156;22;45207;-86
2022/04/05 02:28:51;;;;;;;;;21.67;17.33;;;;;8.87;100.00;101015.72;6295354;22;45223;-86
2022/04/05 02:31:16;;;;;;;;;15.67;15.67;;;;;8.90;100.00;101015.56;6270076;22;44792;-85
2022/04/05 02:33:42;;;;;;;;;14.33;14.33;;;;;8.89;100.00;101012.03;6314894;22;45143;-86
2022/04/05 02:36:08;;;;;;;;;21.00;16.67;;;;;8.93;100.00;101010.94;6286260;22;45248;-86
2022/04/05 02:38:34;;;;;;;;;19.67;18.00;;;;;8.96;100.00;101008.13;6309425;22;45240;-86
2022/04/05 02:41:01;;;;;;;;;17.50;15.50;;;;;8.99;100.00;101001.78;6280007;22;45479;-86
2022/04/05 02:43:27;;;;;;;;;18.67;18.00;;;;;9.00;100.00;100995.56;6280066;22;46937;-86
2022/04/05 02:45:55;;;;;;;;;16.25;16.25;;;;;9.04;100.00;100998.88;6281253;22;44733;-85
2022/04/05 02:48:22;;;;;;;;;19.75;17.25;;;;;9.01;100.00;100991.97;6313448;22;44725;-87
2022/04/05 02:50:48;;;;;;;;;18.25;17.25;;;;;9.03;100.00;100998.03;6323147;22;45187;-86
2022/04/05 02:53:13;;;;;;;;;17.00;17.00;;;;;8.93;100.00;101000.34;6314917;22;45281;-86
2022/04/05 02:55:39;;;;;;;;;14.25;14.25;;;;;8.90;100.00;101002.34;6286236;22;45404;-85
2022/04/05 02:58:04;;;;;;;;;16.75;15.50;;;;;8.89;100.00;100996.16;6317925;22;45230;-87
2022/04/05 03:00:29;;;;;;;;;17.00;15.00;;;;;8.88;100.00;101002.41;6284213;22;44777;-88
2022/04/05 03:02:55;;;;;;;;;19.00;19.00;;;;;8.85;100.00;100992.00;6282822;22;45038;-88
2022/04/05 03:05:22;;;;;;;;;17.00;16.50;;;;;8.82;100.00;100994.78;6282825;22;45182;-86
2022/04/05 03:07:47;;;;;;;;;22.33;19.67;;;;;8.89;100.00;100990.84;6283992;22;45321;-87
2022/04/05 03:10:13;;;;;;;;;19.33;17.67;;;;;8.94;100.00;100993.25;6284178;22;44841;-82
2022/04/05 03:12:38;;;;;;;;;18.33;18.00;;;;;8.98;100.00;100990.34;6311541;22;45127;-86
2022/04/05 03:15:06;;;;;;;;;16.33;14.67;;;;;9.01;100.00;100984.03;6284019;22;44662;-86
2022/04/05 03:17:33;;;;;;;;;18.00;16.67;;;;;8.96;100.00;100988.72;6313811;22;45156;-85
2022/04/05 03:20:03;;;;;;;;;13.33;13.33;;;;;8.96;100.00;100989.59;6286781;22;45519;-85
2022/04/05 03:22:29;;;;;;;;;20.00;18.67;;;;;8.97;100.00;100979.84;6293398;22;45222;-86
2022/04/05 03:24:55;;;;;;;;;11.00;9.50;;;;;8.99;100.00;100985.88;6295108;22;44817;-86
2022/04/05 03:27:20;;;;;;;;;16.75;15.25;;;;;8.96;100.00;100984.28;6319977;22;44789;-88
2022/04/05 03:29:45;;;;;;;;;18.25;14.50;;;;;8.97;100.00;100983.34;6289742;22;44952;-86
2022/04/05 03:32:11;;;;;;;;;16.33;14.00;;;;;8.90;100.00;100984.63;6312615;22;45104;-84
2022/04/05 03:34:40;;;;;;;;;16.00;14.33;;;;;8.93;100.00;100986.25;6310924;22;45292;-85
2022/04/05 03:37:06;;;;;;;;;15.67;15.67;;;;;8.95;100.00;100990.53;6312493;22;44763;-84
2022/04/05 03:39:32;;;;;;;;;15.00;15.00;;;;;8.91;100.00;100988.13;6281897;22;45245;-84
2022/04/05 03:41:57;;;;;;;;;13.25;13.00;;;;;8.83;100.00;100988.56;6310960;22;45341;-85
2022/04/05 03:44:24;;;;;;;;;19.00;15.00;;;;;8.84;100.00;100981.44;6315877;22;44751;-86
2022/04/05 03:46:50;;;;;;;;;16.00;16.00;;;;;8.82;100.00;100986.84;6316049;22;44681;-84
2022/04/05 03:49:16;;;;;;;;;15.67;15.33;;;;;8.81;100.00;100981.66;6285756;22;45207;-85
2022/04/05 03:51:41;;;;;;;;;20.33;20.00;;;;;8.72;100.00;100983.84;6310750;22;45080;-86
2022/04/05 03:54:07;;;;;;;;;14.67;14.67;;;;;8.72;100.00;100989.16;6285563;22;45187;-86
2022/04/05 03:56:32;;;;;;;;;5.25;5.25;;;;;8.64;100.00;100985.22;6286455;22;45618;-85
2022/04/05 03:58:58;;;;;;;;;17.33;17.33;;;;;8.59;100.00;100989.91;6310183;22;44780;-85
2022/04/05 04:01:23;;;;;;;;;16.75;16.75;;;;;8.56;100.00;100995.34;6309700;22;45893;-85
2022/04/05 04:03:49;;;;;;;;;16.33;16.33;;;;;8.62;100.00;100987.09;6310734;22;44782;-84
2022/04/05 04:06:14;;;;;;;;;14.33;13.67;;;;;8.63;100.00;100991.44;6287852;22;45132;-85
2022/04/05 04:08:39;;;;;;;;;22.00;18.00;;;;;8.61;100.00;100982.75;6310721;22;45171;-86
2022/04/05 04:11:05;;;;;;;;;15.67;15.67;;;;;8.61;100.00;100988.03;6307203;22;45361;-85
2022/04/05 04:13:30;;;;;;;;;16.67;16.00;;;;;8.59;100.00;100989.91;6307682;22;44743;-85
2022/04/05 04:15:58;;;;;;;;;18.33;17.67;;;;;8.58;100.00;100991.69;6281991;22;45258;-85
2022/04/05 04:18:24;;;;;;;;;17.67;17.67;;;;;8.53;100.00;100990.25;6311052;22;45100;-86
2022/04/05 04:20:49;;;;;;;;;20.33;15.67;;;;;8.52;100.00;100993.84;6285173;22;46349;-86
2022/04/05 04:23:16;;;;;;;;;19.00;18.67;;;;;8.45;100.00;100994.16;6314307;22;45265;-86
2022/04/05 04:25:41;;;;;;;;;23.00;21.00;;;;;8.45;100.00;100990.66;6288087;22;44713;-86
2022/04/05 04:28:08;;;;;;;;;18.00;16.00;;;;;8.42;100.00;100988.19;6320140;22;45412;-86
2022/04/05 04:30:35;;;;;;;;;18.33;18.00;;;;;8.40;100.00;100992.69;6286801;22;46809;-85
2022/04/05 04:33:01;;;;;;;;;16.67;16.67;;;;;8.34;100.00;100993.00;6313784;22;44840;-86
2022/04/05 04:35:28;;;;;;;;;21.33;19.00;;;;;8.32;100.00;101000.19;6308742;22;45266;-85
2022/04/05 04:37:54;;;;;;;;;14.67;13.00;;;;;8.30;100.00;100999.38;6282489;22;44765;-86
2022/04/05 04:40:19;;;;;;;;;19.00;17.00;;;;;8.30;100.00;100997.59;6310468;22;44980;-85
2022/04/05 04:42:45;;;;;;;;;20.33;18.00;;;;;8.33;100.00;101002.72;6283320;22;44820;-86
2022/04/05 04:45:11;;;;;;;;;18.67;17.33;;;;;8.35;100.00;100998.19;6282055;22;44774;-85
2022/04/05 04:47:37;;;;;;;;;22.67;18.67;;;;;8.38;100.00;100994.56;6283820;22;44856;-87
2022/04/05 04:50:04;;;;;;;;;15.67;15.67;;;;;8.35;100.00;100987.59;6311486;22;45372;-86
2022/04/05 04:52:29;;;;;;;;;24.00;23.33;;;;;8.32;100.00;100994.88;6286361;22;44720;-88
2022/04/05 04:54:54;;;;;;;;;19.33;18.67;;;;;8.28;100.00;100993.31;6312905;22;45140;-86
2022/04/05 04:57:22;;;;;;;;;17.67;17.67;;;;;8.24;100.00;100992.63;6308880;22;45257;-87
2022/04/05 04:59:47;;;;;;;;;19.67;19.67;;;;;8.20;100.00;100996.38;6308513;22;45227;-86
2022/04/05 05:02:13;;;;;;;;;22.00;22.00;;;;;8.21;100.00;100991.00;6310277;22;44763;-87
2022/04/05 05:04:39;;;;;;;;;18.00;17.00;;;;;8.21;100.00;100993.63;6309575;22;44682;-86
2022/04/05 05:07:05;;;;;;;;;18.33;17.67;;;;;8.21;100.00;100995.44;6312824;22;45189;-86
2022/04/05 05:09:30;;;;;;;;;23.00;21.33;;;;;8.22;100.00;100991.88;6291937;22;45191;-86
2022/04/05 05:11:58;;;;;;;;;19.00;19.00;;;;;8.21;100.00;101003.38;6295179;22;44601;-87
2022/04/05 05:14:23;;;;;;;;;23.00;20.00;;;;;8.18;100.00;100995.63;6322591;22;44697;-88
2022/04/05 05:16:48;;;;;;;;;22.00;20.67;;;;;8.18;100.00;100999.09;6291079;22;45291;-88
2022/04/05 05:19:14;;;;;;;;;15.33;15.33;;;;;8.16;100.00;101000.09;6288071;22;46730;-87
2022/04/05 05:21:39;;;;;;;;;24.33;21.67;;;;;8.15;100.00;100998.41;6317357;22;44803;-88
2022/04/05 05:24:05;;;;;;;;;26.33;22.67;;;;;8.18;100.00;101001.75;6317431;22;45441;-85
2022/04/05 05:26:30;;;;;;;;;25.33;25.33;;;;;8.17;100.00;101002.69;6315116;22;44749;-85
2022/04/05 05:28:55;;;;;;;;;24.33;23.00;;;;;8.16;100.00;101000.97;6292217;22;46507;-86
2022/04/05 05:31:21;;;;;;;;;30.67;24.33;;;;;8.20;100.00;101005.16;6296726;22;44688;-88
2022/04/05 05:33:46;;;;;;;;;23.33;21.00;;;;;8.22;100.00;101005.09;6323330;22;44987;-88
2022/04/05 05:36:12;;;;;;;;;25.67;22.00;;;;;8.24;100.00;101000.56;6288781;22;45413;-89
2022/04/05 05:38:37;;;;;;;;;28.00;28.00;;;;;8.22;100.00;101000.66;6289406;22;46594;-86
2022/04/05 05:41:03;;;;;;;;;20.67;20.67;;;;;8.25;100.00;100996.97;6289006;22;45424;-85
2022/04/05 05:43:29;;;;;;;;;23.67;19.67;;;;;8.28;100.00;101002.13;6292267;22;44744;-87
2022/04/05 05:45:55;;;;;;;;;20.00;18.67;;;;;8.31;100.00;101001.94;6318374;22;44839;-87
2022/04/05 05:48:20;;;;;;;;;23.33;20.00;;;;;8.32;100.00;100993.09;6316376;22;45522;-84
2022/04/05 05:50:46;;;;;;;;;20.33;18.00;;;;;8.34;100.00;100993.84;6316551;22;44786;-86
2022/04/05 05:53:12;;;;;;;;;24.67;22.33;;;;;8.38;100.00;100998.06;6285114;22;44777;-86
2022/04/05 05:55:37;;;;;;;;;22.00;20.33;;;;;8.36;100.00;100993.75;6283410;22;45468;-87
2022/04/05 05:58:04;;;;;;;;;21.00;20.75;;;;;8.35;100.00;100998.19;6311389;22;45427;-88
2022/04/05 06:00:30;;;;;;;;;26.25;20.25;;;;;8.36;100.00;100993.75;6311935;22;45337;-87
2022/04/05 06:03:00;;;;;;;;;22.33;22.33;;;;;8.40;100.00;101004.13;6313964;22;45257;-86
2022/04/05 06:05:26;;;;;;;;;22.50;16.00;;;;;8.41;100.00;101015.56;6315107;22;44693;-86
2022/04/05 06:07:52;;;;;;;;;19.25;19.25;;;;;8.47;100.00;101012.63;6280003;22;46554;-85
2022/04/05 06:10:18;;;;;;;;;22.67;17.67;;;;;8.54;100.00;101007.84;6309613;22;44704;-83
2022/04/05 06:12:45;;;;;;;;;16.67;16.67;;;;;8.53;100.00;101014.06;6309029;22;44685;-85
2022/04/05 06:15:13;;;;;;;;;17.67;17.67;;;;;8.51;100.00;101008.88;6279551;22;45385;-85
2022/04/05 06:17:41;;;;;;;;;17.67;16.67;;;;;8.52;100.00;101005.28;6313390;22;45021;-83
2022/04/05 06:20:07;;;;;;;;;18.67;18.33;;;;;8.53;100.00;101014.94;6289537;22;44661;-84
2022/04/05 06:22:43;;;;;;;;;17.00;17.00;;;;;8.57;100.00;101016.47;6321256;22;44851;-84
2022/04/05 06:25:10;;;;;;;;;23.67;23.67;;;;;8.57;100.00;101021.78;6324550;22;44808;-83
2022/04/05 06:27:37;;;;;;;;;20.00;19.67;;;;;8.56;100.00;101027.13;6324250;22;45264;-82
2022/04/05 06:30:04;;;;;;;;;17.67;16.67;;;;;8.57;100.00;101032.38;6292926;22;45344;-85
2022/04/05 06:32:30;;;;;;;;;21.50;20.25;;;;;8.62;100.00;101037.41;6322853;22;45242;-83
2022/04/05 06:34:55;;;;;;;;;23.00;21.00;;;;;8.59;100.00;101035.78;6322424;22;44783;-85
2022/04/05 06:37:21;;;;;;;;;18.00;16.67;;;;;8.62;100.00;101042.72;6315269;22;45631;-86
2022/04/05 06:39:46;;;;;;;;;23.00;18.00;;;;;8.62;100.00;101037.41;6280151;22;45302;-84
2022/04/05 06:42:11;;;;;;;;;21.67;20.00;;;;;8.64;100.00;101032.88;6307246;22;45294;-83
2022/04/05 06:44:37;;;;;;;;;18.00;18.00;;;;;8.63;100.00;101044.41;6279313;22;45191;-85
2022/04/05 06:47:02;;;;;;;;;21.67;20.00;;;;;8.62;100.00;101048.84;6304083;22;45166;-84
2022/04/05 06:49:28;;;;;;;;;20.67;19.33;;;;;8.64;100.00;101048.75;6278860;22;45176;-83
2022/04/05 06:51:53;;;;;;;;;20.00;19.33;;;;;8.66;100.00;101046.91;6279049;22;44730;-84
2022/04/05 06:54:18;;;;;;;;;15.67;15.00;;;;;8.68;100.00;101045.03;6278732;22;44872;-84
2022/04/05 06:56:44;;;;;;;;;21.33;20.67;;;;;8.71;100.00;101051.00;6306224;22;47428;-85
2022/04/05 06:59:09;;;;;;;;;19.00;16.00;;;;;8.77;100.00;101038.38;6279312;22;45268;-84
2022/04/05 07:01:35;;;;;;;;;22.33;17.00;;;;;8.83;100.00;101040.69;6308069;22;45224;-84
2022/04/05 07:04:01;;;;;;;;;22.33;22.33;;;;;8.87;100.00;101040.44;6307053;22;44736;-85
2022/04/05 07:06:26;;;;;;;;;20.00;18.67;;;;;8.92;100.00;101034.88;6306445;22;45316;-84
2022/04/05 07:08:53;;;;;;;;;21.33;17.67;;;;;8.96;100.00;101031.13;6279845;22;45186;-85
2022/04/05 07:11:19;;;;;;;;;21.67;20.33;;;;;9.02;100.00;101028.13;6281534;22;45373;-86
2022/04/05 07:13:44;;;;;;;;;21.00;19.50;;;;;8.99;100.00;101034.47;6279918;22;44821;-84
2022/04/05 07:16:10;;;;;;;;;23.00;22.00;;;;;9.01;100.00;101024.63;6279062;22;47357;-84
2022/04/05 07:18:36;;;;;;;;;23.67;20.67;;;;;9.09;100.00;101020.69;6279528;22;45251;-85
2022/04/05 07:21:02;;;;;;;;;17.00;14.75;;;;;9.13;100.00;101022.22;6307728;22;45471;-85
2022/04/05 07:23:28;;;;;;;;;18.50;18.50;;;;;9.13;100.00;101019.56;6307748;22;44865;-87
2022/04/05 07:25:53;;;;;;;;;18.75;17.00;;;;;9.15;100.00;101023.00;6312201;22;45459;-85
2022/04/05 07:28:18;;;;;;;;;17.75;13.00;;;;;9.20;100.00;101024.44;6312260;22;44807;-84
2022/04/05 07:30:48;;;;;;;;;17.25;15.50;;;;;9.26;100.00;101021.44;6325246;22;45289;-85
2022/04/05 07:33:14;;;;;;;;;18.33;15.67;;;;;9.32;100.00;101014.94;6290388;22;44821;-85
2022/04/05 07:35:39;;;;;;;;;22.00;22.00;;;;;9.33;100.00;101008.72;6315008;22;45854;-85
2022/04/05 07:38:05;;;;;;;;;25.33;18.00;;;;;9.37;100.00;101018.16;6294289;22;45147;-83
2022/04/05 07:40:47;;;;;;;;;21.25;17.50;;;;;9.43;100.00;101020.50;6283753;22;45279;-84
2022/04/05 07:43:16;;;;;;;;;21.50;19.00;;;;;9.53;100.00;101015.50;6281898;22;44965;-83
2022/04/05 07:45:41;;;;;;;;;17.75;16.25;;;;;9.59;100.00;101014.28;6308735;22;46363;-84
2022/04/05 07:48:07;;;;;;;;;18.25;18.25;;;;;9.56;100.00;101017.13;6305885;22;45231;-85
2022/04/05 07:50:32;;;;;;;;;18.00;18.00;;;;;9.51;100.00;101018.22;6309894;22;45230;-85
2022/04/05 07:52:57;;;;;;;;;20.67;19.67;;;;;9.52;100.00;101030.56;6310267;22;44907;-85
2022/04/05 07:55:23;;;;;;;;;19.50;17.75;;;;;9.55;100.00;101018.06;6312494;22;45099;-84
2022/04/05 07:57:49;;;;;;;;;20.75;19.25;;;;;9.49;100.00;101032.53;6311304;22;45509;-81
2022/04/05 08:00:15;;;;;;;;;22.33;20.33;;;;;9.51;100.00;101022.69;6309130;22;44802;-84
2022/04/05 08:02:41;;;;;;;;;22.50;19.00;;;;;9.53;100.00;101028.78;6310472;22;45278;-84
2022/04/05 08:05:07;;;;;;;;;21.50;18.50;;;;;9.58;100.00;101018.75;6309470;22;45290;-84
2022/04/05 08:07:33;;;;;;;;;21.00;21.00;;;;;9.67;100.00;101025.28;6280096;22;44741;-85
2022/04/05 08:09:58;;;;;;;;;20.00;20.00;;;;;9.74;100.00;101018.69;6309468;22;45187;-85
2022/04/05 08:12:24;;;;;;;;;21.00;19.25;;;;;9.87;100.00;101021.50;6310296;22;44753;-82
2022/04/05 08:14:49;;;;;;;;;18.75;17.00;;;;;9.96;100.00;101019.13;6310428;22;45177;-83
2022/04/05 08:17:14;;;;;;;;;21.75;20.50;;;;;9.98;100.00;101016.38;6278678;22;44736;-85
2022/04/05 08:19:40;;;;;;;;;20.50;18.25;;;;;10.04;100.00;101008.03;6279652;22;45242;-85
2022/04/05 08:22:08;;;;;;;;;22.25;20.25;;;;;9.98;100.00;101016.38;6306724;22;44692;-85
2022/04/05 08:24:34;;;;;;;;;22.25;19.00;;;;;10.00;100.00;101020.63;6277536;22;45454;-84
2022/04/05 08:27:00;;;;;;;;;19.50;18.25;;;;;10.01;100.00;101021.53;6278675;22;45360;-86
2022/04/05 08:29:26;;;;;;;;;20.25;20.00;;;;;10.03;100.00;101030.22;6280052;22;45344;-84
2022/04/05 08:31:51;;;;;;;;;23.00;22.25;;;;;10.00;100.00;101033.06;6310477;22;44776;-84
2022/04/05 08:34:18;;;;;;;;;19.75;19.00;;;;;10.02;100.00;101033.84;6315190;22;45233;-84
2022/04/05 08:36:44;;;;;;;;;23.00;20.00;;;;;10.07;100.00;101031.75;6314555;22;45242;-85
2022/04/05 08:39:10;;;;;;;;;24.50;21.50;;;;;10.12;100.00;101034.13;6285514;22;44686;-86
2022/04/05 08:41:38;;;;;;;;;21.00;19.25;;;;;10.15;100.00;101028.63;6315676;22;45183;-85
2022/04/05 08:44:04;;;;;;;;;26.75;18.50;;;;;10.21;100.00;101017.66;6316068;22;45181;-86
2022/04/05 08:46:34;;;;;;;;;18.50;17.25;;;;;10.26;100.00;101016.47;6284491;22;44753;-85
2022/04/05 08:49:00;;;;;;;;;29.33;25.67;;;;;10.29;100.00;101012.75;6289255;22;44745;-83
2022/04/05 08:51:26;;;;;;;;;20.25;19.00;;;;;10.29;100.00;101018.91;6315031;22;44885;-84
2022/04/05 08:53:52;;;;;;;;;20.67;18.00;;;;;10.24;100.00;101018.34;6313047;22;45094;-86
2022/04/05 08:56:17;;;;;;;;;23.75;19.75;;;;;10.31;100.00;101026.81;6283766;22;44742;-85
2022/04/05 08:58:42;;;;;;;;;24.67;21.67;;;;;10.31;100.00;101026.81;6283739;22;44866;-86
2022/04/05 09:01:09;;;;;;;;;19.00;17.50;;;;;10.27;100.00;101023.47;6282717;22;44755;-85
2022/04/05 09:03:35;;;;;;;;;19.25;16.00;;;;;10.30;100.00;101027.75;6281193;22;46845;-84
2022/04/05 09:06:27;;;;;;;;;22.33;21.00;;;;;10.31;100.00;101028.59;6309054;22;44774;-85
2022/04/05 09:09:17;;;;;;;;;20.67;18.67;;;;;10.25;100.00;101029.81;6310044;22;44731;-85
2022/04/05 09:11:57;;;;;;;;;21.67;21.67;;;;;10.27;100.00;101028.78;6307734;22;44735;-86
2022/04/05 09:14:28;;;;;;;;;21.00;18.50;;;;;10.37;100.00;101022.91;6308074;22;45328;-86
2022/04/05 09:17:05;;;;;;;;;26.50;20.50;;;;;10.43;100.00;101018.06;6307341;22;44709;-85
2022/04/05 09:19:42;;;;;;;;;19.00;18.00;;;;;10.51;100.00;101018.44;6309222;22;45354;-86
2022/04/05 09:22:08;;;;;;;;;17.75;15.50;;;;;10.58;100.00;101016.25;6287340;22;45484;-86
2022/04/05 09:24:38;;;;;;;;;22.75;21.50;;;;;10.52;100.00;101014.84;6309559;22;44980;-87
2022/04/05 09:27:05;;;;;;;;;16.50;15.25;;;;;10.65;100.00;101022.91;6282341;22;44747;-86
2022/04/05 09:29:38;;;;;;;;;21.25;18.50;;;;;10.77;100.00;101019.47;6312870;22;44783;-86
2022/04/05 09:32:03;;;;;;;;;20.00;19.00;;;;;10.84;100.00;101019.94;6288751;22;44841;-87
2022/04/05 09:34:29;;;;;;;;;22.25;20.75;;;;;10.89;100.00;101023.16;6321996;22;45123;-85
2022/04/05 09:36:54;;;;;;;;;22.50;18.75;;;;;10.91;100.00;101018.59;6323606;22;45174;-87
2022/04/05 09:39:23;;;;;;;;;19.00;16.00;;;;;10.99;100.00;101026.09;6314148;22;45288;-88
2022/04/05 09:42:09;;;;;;;;;21.00;20.00;;;;;10.95;100.00;101027.22;6316420;22;44797;-86
2022/04/05 09:44:37;;;;;;;;;22.00;19.00;;;;;10.96;100.00;101020.94;6324109;22;45278;-88
2022/04/05 09:47:04;;;;;;;;;20.25;19.00;;;;;11.09;100.00;101032.50;6294886;22;44742;-86
2022/04/05 09:49:32;;;;;;;;;23.75;21.50;;;;;11.17;100.00;101024.03;6287532;22;44666;-87
2022/04/05 09:52:02;;;;;;;;;19.50;18.00;;;;;11.30;100.00;101031.13;6316857;22;45225;-88
2022/04/05 09:54:30;;;;;;;;;18.50;18.50;;;;;11.44;100.00;101032.03;6297145;22;46754;-87
2022/04/05 09:57:06;;;;;;;;;19.00;18.00;;;;;11.48;100.00;101021.06;6322310;22;45210;-87
2022/04/05 09:59:41;;;;;;;;;20.25;17.75;;;;;11.43;100.00;101017.88;6288385;22;45259;-88
2022/04/05 10:02:16;;;;;;;;;22.50;20.75;;;;;11.45;100.00;101015.94;6313387;22;44748;-87
2022/04/05 10:05:05;;;;;;;;;25.50;21.00;;;;;11.52;100.00;101013.75;6283149;22;46850;-85
2022/04/05 10:07:31;;;;;;;;;18.33;18.33;;;;;11.53;100.00;101007.47;6308681;22;44694;-86
2022/04/05 10:10:04;;;;;;;;;21.75;18.00;;;;;11.66;100.00;101008.38;6309030;22;45248;-86
2022/04/05 10:12:30;;;;;;;;;19.00;18.75;;;;;11.74;100.00;101010.50;6310397;22;45281;-87
2022/04/05 10:14:57;;;;;;;;;21.25;16.00;;;;;11.72;100.00;101007.94;6281045;22;46622;-87
2022/04/05 10:17:28;;;;;;;;;19.50;18.25;;;;;11.75;100.00;101010.41;6281454;22;45246;-86
2022/04/05 10:19:57;;;;;;;;;20.25;19.00;;;;;11.80;100.00;101018.09;6309479;22;45313;-87
2022/04/05 10:22:23;;;;;;;;;19.00;17.25;;;;;11.82;100.00;101011.72;6312734;22;44617;-86
2022/04/05 10:24:53;;;;;;;;;19.00;19.00;;;;;11.89;100.00;101008.63;6287596;22;46351;-88
2022/04/05 10:27:25;;;;;;;;;25.25;18.50;;;;;11.88;100.00;101004.28;6283183;22;45428;-87
2022/04/05 10:30:06;;;;;;;;;18.00;17.50;;;;;11.81;100.00;101017.13;6295499;22;44614;-93
2022/04/05 10:32:38;;;;;;;;;20.25;17.25;;;;;11.76;100.00;101004.13;6322757;22;44807;-87
2022/04/05 10:35:08;;;;;;;;;19.50;17.75;;;;;11.66;100.00;101004.84;6320519;22;45103;-86
2022/04/05 10:37:35;;;;;;;;;18.50;17.25;;;;;11.70;100.00;101012.53;6317153;22;44655;-86
2022/04/05 10:40:00;;;;;;;;;16.00;14.00;;;;;11.71;100.00;101008.91;6310441;22;45256;-86
2022/04/05 10:42:52;;;;;;;;;18.00;16.75;;;;;11.77;100.00;101015.63;6282471;22;44903;-85
2022/04/05 10:45:18;;;;;;;;;15.75;14.25;;;;;11.66;100.00;101010.19;6316280;22;44999;-87
2022/04/05 10:48:05;;;;;;;;;19.00;19.00;;;;;11.68;100.00;101014.44;6317341;22;45166;-87
2022/04/05 10:50:31;;;;;;;;;18.00;17.00;;;;;11.70;100.00;101007.22;6316652;22;44669;-87
2022/04/05 10:53:20;;;;;;;;;16.00;16.00;;;;;11.78;100.00;101009.34;6286167;22;45199;-86
2022/04/05 10:56:14;;;;;;;;;15.25;12.50;;;;;11.79;100.00;101011.88;6313479;22;45304;-86
2022/04/05 10:59:02;;;;;;;;;22.50;21.00;;;;;11.84;100.00;100995.63;6312256;22;44707;-86
2022/04/05 11:01:48;;;;;;;;;51.33;38.67;;;;;11.78;100.00;100994.22;6284559;22;44750;-86
2022/04/05 11:04:17;;;;;;;;;15.50;13.25;;;;;11.71;100.00;100995.59;6314788;22;45534;-86
2022/04/05 11:07:06;;;;;;;;;13.00;12.00;;;;;11.67;100.00;100993.25;6315780;22;45119;-87
2022/04/05 11:09:39;;;;;;;;;16.25;14.75;;;;;11.76;100.00;100993.47;6311789;22;44788;-87